ENRT weather

Trondheim Heliport, Rosten
Trondheim, Sør-Trøndelag, Norway

Public forecast

Using degrees Celsius for public forecast. Weather courtesy of forecast.io.

METAR (pilot weather report)

Closest report is Trondheim Airport Værnes, 15.7 nm (29.1 km) ENE. Retrieved 2019/07/24 05:20 UTC (35 minutes ago):

ENVA 240520Z 13003KT 9999 FEW030 SCT059 BKN088 19/16 Q1018 NOSIG RMK WIND 670FT 13006KT

TAF (pilot weather forecast)

Forecast is more than 12 hours old.

Closest forecast is Trondheim Airport Værnes, 15.7 nm (29.1 km) ENE. Retrieved 2019/07/23 00:57 UTC (1 day ago):

TAF ENVA 232300Z 2400/2424 11005KT 9999 BKN050 BECMG 2408/2410 27010KT PROB30 TEMPO 2414/2418 SHRA BKN035CB BECMG 2415/2417 09007KT